sensor_id;sensor_type;location;lat;lon;timestamp;pressure;altitude;pressure_sealevel;temperature;humidity
74659;BME280;63186;51.204;6.536;2024-03-29T00:00:54;98906.47;;;6.76;92.17
74659;BME280;63186;51.204;6.536;2024-03-29T00:03:20;98900.47;;;6.83;91.92
74659;BME280;63186;51.204;6.536;2024-03-29T00:05:46;98898.53;;;6.84;91.71
74659;BME280;63186;51.204;6.536;2024-03-29T00:08:11;98896.94;;;6.83;92.04
74659;BME280;63186;51.204;6.536;2024-03-29T00:10:36;98894.38;;;6.77;92.26
74659;BME280;63186;51.204;6.536;2024-03-29T00:13:02;98895.34;;;6.82;92.14
74659;BME280;63186;51.204;6.536;2024-03-29T00:15:27;98876.53;;;6.80;92.21
74659;BME280;63186;51.204;6.536;2024-03-29T00:17:52;98866.56;;;6.75;91.95
74659;BME280;63186;51.204;6.536;2024-03-29T00:20:18;98870.00;;;6.72;92.28
74659;BME280;63186;51.204;6.536;2024-03-29T00:22:45;98875.97;;;6.66;92.91
74659;BME280;63186;51.204;6.536;2024-03-29T00:25:10;98875.47;;;6.64;93.20
74659;BME280;63186;51.204;6.536;2024-03-29T00:27:35;98873.75;;;6.59;93.41
74659;BME280;63186;51.204;6.536;2024-03-29T00:30:01;98885.50;;;6.60;93.46
74659;BME280;63186;51.204;6.536;2024-03-29T00:32:26;98884.25;;;6.48;93.85
74659;BME280;63186;51.204;6.536;2024-03-29T00:34:52;98885.63;;;6.34;95.01
74659;BME280;63186;51.204;6.536;2024-03-29T00:37:19;98887.56;;;6.33;95.19
74659;BME280;63186;51.204;6.536;2024-03-29T00:39:45;98883.69;;;6.34;95.14
74659;BME280;63186;51.204;6.536;2024-03-29T00:42:11;98893.31;;;6.40;94.87
74659;BME280;63186;51.204;6.536;2024-03-29T00:44:41;98893.78;;;6.42;94.95
74659;BME280;63186;51.204;6.536;2024-03-29T00:47:07;98900.84;;;6.43;95.23
74659;BME280;63186;51.204;6.536;2024-03-29T00:49:32;98891.88;;;6.34;96.09
74659;BME280;63186;51.204;6.536;2024-03-29T00:51:57;98899.28;;;6.34;96.74
74659;BME280;63186;51.204;6.536;2024-03-29T00:54:23;98890.75;;;6.35;96.47
74659;BME280;63186;51.204;6.536;2024-03-29T00:56:49;98883.88;;;6.29;96.81
74659;BME280;63186;51.204;6.536;2024-03-29T00:59:14;98882.38;;;6.40;96.79
74659;BME280;63186;51.204;6.536;2024-03-29T01:01:40;98877.31;;;6.51;96.51
74659;BME280;63186;51.204;6.536;2024-03-29T01:04:05;98857.72;;;6.49;96.29
74659;BME280;63186;51.204;6.536;2024-03-29T01:06:30;98869.91;;;6.51;96.14
74659;BME280;63186;51.204;6.536;2024-03-29T01:08:56;98866.88;;;6.53;96.37
74659;BME280;63186;51.204;6.536;2024-03-29T01:11:21;98865.94;;;6.49;96.37
74659;BME280;63186;51.204;6.536;2024-03-29T01:13:47;98866.38;;;6.51;96.73
74659;BME280;63186;51.204;6.536;2024-03-29T01:16:12;98875.25;;;6.48;97.23
74659;BME280;63186;51.204;6.536;2024-03-29T01:18:37;98881.00;;;6.55;96.79
74659;BME280;63186;51.204;6.536;2024-03-29T01:21:04;98892.84;;;6.68;96.06
74659;BME280;63186;51.204;6.536;2024-03-29T01:23:29;98899.78;;;6.65;96.47
74659;BME280;63186;51.204;6.536;2024-03-29T01:25:54;98900.72;;;6.69;95.92
74659;BME280;63186;51.204;6.536;2024-03-29T01:28:20;98901.66;;;6.73;95.66
74659;BME280;63186;51.204;6.536;2024-03-29T01:30:52;98900.66;;;6.78;95.04
74659;BME280;63186;51.204;6.536;2024-03-29T01:33:17;98907.22;;;6.86;94.65
74659;BME280;63186;51.204;6.536;2024-03-29T01:35:42;98890.47;;;6.87;94.76
74659;BME280;63186;51.204;6.536;2024-03-29T01:38:07;98901.53;;;6.91;94.42
74659;BME280;63186;51.204;6.536;2024-03-29T01:40:33;98882.59;;;6.86;95.07
74659;BME280;63186;51.204;6.536;2024-03-29T01:43:00;98894.44;;;6.98;93.70
74659;BME280;63186;51.204;6.536;2024-03-29T01:45:26;98879.28;;;7.01;93.24
74659;BME280;63186;51.204;6.536;2024-03-29T01:47:51;98877.00;;;7.03;93.59
74659;BME280;63186;51.204;6.536;2024-03-29T01:50:16;98870.72;;;7.02;92.86
74659;BME280;63186;51.204;6.536;2024-03-29T01:52:42;98860.38;;;7.08;92.99
74659;BME280;63186;51.204;6.536;2024-03-29T01:55:07;98854.38;;;7.15;91.98
74659;BME280;63186;51.204;6.536;2024-03-29T01:57:33;98849.66;;;7.24;90.99
74659;BME280;63186;51.204;6.536;2024-03-29T01:59:58;98841.56;;;7.27;90.59
74659;BME280;63186;51.204;6.536;2024-03-29T02:02:24;98849.91;;;7.31;90.43
74659;BME280;63186;51.204;6.536;2024-03-29T02:04:50;98832.00;;;7.33;90.17
74659;BME280;63186;51.204;6.536;2024-03-29T02:07:16;98813.53;;;7.30;90.47
74659;BME280;63186;51.204;6.536;2024-03-29T02:09:41;98816.72;;;7.32;90.74
74659;BME280;63186;51.204;6.536;2024-03-29T02:12:07;98808.84;;;7.31;91.01
74659;BME280;63186;51.204;6.536;2024-03-29T02:14:32;98823.09;;;7.37;89.40
74659;BME280;63186;51.204;6.536;2024-03-29T02:16:57;98816.97;;;7.40;89.95
74659;BME280;63186;51.204;6.536;2024-03-29T02:19:23;98817.09;;;7.43;89.20
74659;BME280;63186;51.204;6.536;2024-03-29T02:21:49;98817.91;;;7.44;89.37
74659;BME280;63186;51.204;6.536;2024-03-29T02:24:16;98818.81;;;7.48;90.03
74659;BME280;63186;51.204;6.536;2024-03-29T02:26:42;98828.97;;;7.47;90.28
74659;BME280;63186;51.204;6.536;2024-03-29T02:29:10;98825.44;;;7.47;90.56
74659;BME280;63186;51.204;6.536;2024-03-29T02:31:35;98825.78;;;7.45;90.37
74659;BME280;63186;51.204;6.536;2024-03-29T02:34:00;98827.72;;;7.45;90.79
74659;BME280;63186;51.204;6.536;2024-03-29T02:36:26;98835.72;;;7.50;89.58
74659;BME280;63186;51.204;6.536;2024-03-29T02:38:51;98839.38;;;7.54;88.40
74659;BME280;63186;51.204;6.536;2024-03-29T02:41:16;98849.97;;;7.55;89.76
74659;BME280;63186;51.204;6.536;2024-03-29T02:43:42;98851.91;;;7.55;90.73
74659;BME280;63186;51.204;6.536;2024-03-29T02:46:07;98846.00;;;7.53;90.23
74659;BME280;63186;51.204;6.536;2024-03-29T02:48:32;98860.81;;;7.52;91.28
74659;BME280;63186;51.204;6.536;2024-03-29T02:50:58;98852.97;;;7.50;90.15
74659;BME280;63186;51.204;6.536;2024-03-29T02:53:23;98858.75;;;7.49;91.16
74659;BME280;63186;51.204;6.536;2024-03-29T02:55:48;98863.91;;;7.50;90.10
74659;BME280;63186;51.204;6.536;2024-03-29T02:58:14;98837.78;;;7.53;89.81
74659;BME280;63186;51.204;6.536;2024-03-29T03:00:40;98843.25;;;7.53;90.06
74659;BME280;63186;51.204;6.536;2024-03-29T03:03:05;98836.19;;;7.52;90.56
74659;BME280;63186;51.204;6.536;2024-03-29T03:05:30;98830.31;;;7.41;91.21
74659;BME280;63186;51.204;6.536;2024-03-29T03:07:55;98834.19;;;7.40;91.88
74659;BME280;63186;51.204;6.536;2024-03-29T03:10:49;98835.34;;;7.39;92.08
74659;BME280;63186;51.204;6.536;2024-03-29T03:13:32;98837.03;;;7.31;93.06
74659;BME280;63186;51.204;6.536;2024-03-29T03:15:57;98826.38;;;7.30;93.31
74659;BME280;63186;51.204;6.536;2024-03-29T03:18:23;98833.59;;;7.34;92.83
74659;BME280;63186;51.204;6.536;2024-03-29T03:20:55;98831.13;;;7.42;92.77
74659;BME280;63186;51.204;6.536;2024-03-29T03:23:22;98829.53;;;7.41;93.36
74659;BME280;63186;51.204;6.536;2024-03-29T03:25:57;98830.31;;;7.41;93.13
74659;BME280;63186;51.204;6.536;2024-03-29T03:28:23;98822.25;;;7.45;93.55
74659;BME280;63186;51.204;6.536;2024-03-29T03:30:49;98820.91;;;7.51;93.45
74659;BME280;63186;51.204;6.536;2024-03-29T03:33:15;98811.78;;;7.59;92.33
74659;BME280;63186;51.204;6.536;2024-03-29T03:35:42;98816.00;;;7.69;92.00
74659;BME280;63186;51.204;6.536;2024-03-29T03:38:07;98824.59;;;7.79;91.32
74659;BME280;63186;51.204;6.536;2024-03-29T03:40:33;98820.50;;;7.85;91.58
74659;BME280;63186;51.204;6.536;2024-03-29T03:42:59;98798.72;;;7.89;90.91
74659;BME280;63186;51.204;6.536;2024-03-29T03:45:24;98801.69;;;7.96;90.87
74659;BME280;63186;51.204;6.536;2024-03-29T03:47:49;98797.03;;;7.97;90.79
74659;BME280;63186;51.204;6.536;2024-03-29T03:50:15;98798.63;;;7.98;90.93
74659;BME280;63186;51.204;6.536;2024-03-29T03:52:40;98806.03;;;7.97;91.37
74659;BME280;63186;51.204;6.536;2024-03-29T03:55:06;98807.06;;;7.93;91.82
74659;BME280;63186;51.204;6.536;2024-03-29T03:57:31;98819.03;;;7.88;92.59
74659;BME280;63186;51.204;6.536;2024-03-29T03:59:59;98821.31;;;7.86;92.78
74659;BME280;63186;51.204;6.536;2024-03-29T04:02:24;98815.84;;;7.86;92.88
74659;BME280;63186;51.204;6.536;2024-03-29T04:04:49;98821.75;;;7.88;93.09
74659;BME280;63186;51.204;6.536;2024-03-29T04:07:15;98829.66;;;7.89;93.03
74659;BME280;63186;51.204;6.536;2024-03-29T04:09:40;98822.91;;;7.87;93.19
74659;BME280;63186;51.204;6.536;2024-03-29T04:12:05;98828.63;;;7.94;92.78
74659;BME280;63186;51.204;6.536;2024-03-29T04:14:31;98819.16;;;7.92;93.24
74659;BME280;63186;51.204;6.536;2024-03-29T04:16:56;98822.91;;;7.87;93.69
74659;BME280;63186;51.204;6.536;2024-03-29T04:19:21;98825.31;;;7.76;94.78
74659;BME280;63186;51.204;6.536;2024-03-29T04:21:47;98827.09;;;7.72;94.15
74659;BME280;63186;51.204;6.536;2024-03-29T04:24:12;98842.28;;;7.70;94.51
74659;BME280;63186;51.204;6.536;2024-03-29T04:26:37;98855.06;;;7.66;94.76
74659;BME280;63186;51.204;6.536;2024-03-29T04:29:03;98845.44;;;7.59;95.45
74659;BME280;63186;51.204;6.536;2024-03-29T04:31:29;98829.78;;;7.48;96.52
74659;BME280;63186;51.204;6.536;2024-03-29T04:33:54;98824.03;;;7.41;97.38
74659;BME280;63186;51.204;6.536;2024-03-29T04:36:20;98831.56;;;7.31;99.29
74659;BME280;63186;51.204;6.536;2024-03-29T04:38:45;98824.53;;;7.22;99.73
74659;BME280;63186;51.204;6.536;2024-03-29T04:41:10;98826.22;;;7.14;100.00
74659;BME280;63186;51.204;6.536;2024-03-29T04:43:35;98838.31;;;7.13;100.00
74659;BME280;63186;51.204;6.536;2024-03-29T04:46:06;98834.28;;;7.11;100.00
74659;BME280;63186;51.204;6.536;2024-03-29T04:48:34;98830.75;;;7.10;100.00
74659;BME280;63186;51.204;6.536;2024-03-29T04:50:59;98822.44;;;7.06;100.00
74659;BME280;63186;51.204;6.536;2024-03-29T04:53:24;98821.13;;;7.04;100.00
74659;BME280;63186;51.204;6.536;2024-03-29T04:55:56;98824.91;;;6.99;100.00
74659;BME280;63186;51.204;6.536;2024-03-29T04:58:22;98818.28;;;7.00;100.00
74659;BME280;63186;51.204;6.536;2024-03-29T05:00:48;98810.88;;;7.01;100.00
74659;BME280;63186;51.204;6.536;2024-03-29T05:03:14;98801.72;;;6.97;100.00
74659;BME280;63186;51.204;6.536;2024-03-29T05:05:39;98796.16;;;6.93;100.00
74659;BME280;63186;51.204;6.536;2024-03-29T05:08:05;98795.00;;;6.94;100.00
74659;BME280;63186;51.204;6.536;2024-03-29T05:10:30;98807.63;;;6.87;100.00
74659;BME280;63186;51.204;6.536;2024-03-29T05:12:56;98807.44;;;6.92;100.00
74659;BME280;63186;51.204;6.536;2024-03-29T05:15:21;98792.94;;;6.91;100.00
74659;BME280;63186;51.204;6.536;2024-03-29T05:17:46;98811.88;;;6.96;100.00
74659;BME280;63186;51.204;6.536;2024-03-29T05:20:11;98810.63;;;6.94;100.00
74659;BME280;63186;51.204;6.536;2024-03-29T05:22:37;98805.25;;;6.97;100.00
74659;BME280;63186;51.204;6.536;2024-03-29T05:25:02;98807.19;;;6.97;100.00
74659;BME280;63186;51.204;6.536;2024-03-29T05:27:29;98795.34;;;6.93;100.00
74659;BME280;63186;51.204;6.536;2024-03-29T05:29:54;98794.88;;;6.91;100.00
74659;BME280;63186;51.204;6.536;2024-03-29T05:32:20;98802.94;;;6.87;100.00
74659;BME280;63186;51.204;6.536;2024-03-29T05:34:45;98816.75;;;6.91;100.00
74659;BME280;63186;51.204;6.536;2024-03-29T05:37:11;98805.16;;;6.94;100.00
74659;BME280;63186;51.204;6.536;2024-03-29T05:39:37;98788.19;;;7.00;100.00
74659;BME280;63186;51.204;6.536;2024-03-29T05:42:02;98768.38;;;7.03;100.00
74659;BME280;63186;51.204;6.536;2024-03-29T05:44:27;98779.91;;;7.09;100.00
74659;BME280;63186;51.204;6.536;2024-03-29T05:46:53;98769.66;;;7.06;100.00
74659;BME280;63186;51.204;6.536;2024-03-29T05:49:18;98770.78;;;7.05;100.00
74659;BME280;63186;51.204;6.536;2024-03-29T05:51:43;98768.38;;;7.03;100.00
74659;BME280;63186;51.204;6.536;2024-03-29T05:54:09;98777.72;;;7.02;100.00
74659;BME280;63186;51.204;6.536;2024-03-29T05:56:34;98778.06;;;7.01;100.00
74659;BME280;63186;51.204;6.536;2024-03-29T05:58:59;98783.53;;;7.01;100.00
74659;BME280;63186;51.204;6.536;2024-03-29T06:01:25;98786.94;;;6.98;100.00
74659;BME280;63186;51.204;6.536;2024-03-29T06:03:50;98771.88;;;6.92;100.00
74659;BME280;63186;51.204;6.536;2024-03-29T06:06:20;98769.25;;;6.95;100.00
74659;BME280;63186;51.204;6.536;2024-03-29T06:08:49;98781.78;;;6.96;100.00
74659;BME280;63186;51.204;6.536;2024-03-29T06:11:14;98772.78;;;6.96;100.00
74659;BME280;63186;51.204;6.536;2024-03-29T06:13:39;98773.56;;;6.96;100.00
74659;BME280;63186;51.204;6.536;2024-03-29T06:16:21;98781.94;;;7.00;100.00
74659;BME280;63186;51.204;6.536;2024-03-29T06:19:05;98774.06;;;6.98;100.00
74659;BME280;63186;51.204;6.536;2024-03-29T06:21:31;98780.78;;;7.01;100.00
74659;BME280;63186;51.204;6.536;2024-03-29T06:24:07;98780.44;;;7.02;100.00
74659;BME280;63186;51.204;6.536;2024-03-29T06:26:33;98789.94;;;7.05;100.00
74659;BME280;63186;51.204;6.536;2024-03-29T06:29:00;98785.13;;;7.02;100.00
74659;BME280;63186;51.204;6.536;2024-03-29T06:31:26;98792.78;;;7.08;100.00
74659;BME280;63186;51.204;6.536;2024-03-29T06:33:51;98789.25;;;7.08;100.00
74659;BME280;63186;51.204;6.536;2024-03-29T06:36:17;98785.53;;;7.13;100.00
74659;BME280;63186;51.204;6.536;2024-03-29T06:38:42;98785.63;;;7.16;100.00
74659;BME280;63186;51.204;6.536;2024-03-29T06:41:07;98790.78;;;7.18;100.00
74659;BME280;63186;51.204;6.536;2024-03-29T06:43:33;98784.53;;;7.17;100.00
74659;BME280;63186;51.204;6.536;2024-03-29T06:45:58;98790.25;;;7.24;100.00
74659;BME280;63186;51.204;6.536;2024-03-29T06:48:24;98786.03;;;7.27;100.00
74659;BME280;63186;51.204;6.536;2024-03-29T06:50:50;98797.31;;;7.25;100.00
74659;BME280;63186;51.204;6.536;2024-03-29T06:53:16;98793.09;;;7.28;100.00
74659;BME280;63186;51.204;6.536;2024-03-29T06:55:41;98787.28;;;7.29;100.00
74659;BME280;63186;51.204;6.536;2024-03-29T06:58:06;98793.22;;;7.31;100.00
74659;BME280;63186;51.204;6.536;2024-03-29T07:00:32;98792.75;;;7.29;100.00
74659;BME280;63186;51.204;6.536;2024-03-29T07:02:57;98797.13;;;7.30;100.00
74659;BME280;63186;51.204;6.536;2024-03-29T07:05:23;98788.56;;;7.32;100.00
74659;BME280;63186;51.204;6.536;2024-03-29T07:07:48;98807.81;;;7.35;100.00
74659;BME280;63186;51.204;6.536;2024-03-29T07:10:13;98794.94;;;7.36;100.00
74659;BME280;63186;51.204;6.536;2024-03-29T07:12:38;98803.88;;;7.45;100.00
74659;BME280;63186;51.204;6.536;2024-03-29T07:15:04;98805.72;;;7.53;100.00
74659;BME280;63186;51.204;6.536;2024-03-29T07:17:30;98800.94;;;7.50;100.00
74659;BME280;63186;51.204;6.536;2024-03-29T07:19:55;98807.53;;;7.49;100.00
74659;BME280;63186;51.204;6.536;2024-03-29T07:22:21;98802.19;;;7.53;100.00
74659;BME280;63186;51.204;6.536;2024-03-29T07:24:46;98816.13;;;7.60;100.00
74659;BME280;63186;51.204;6.536;2024-03-29T07:27:11;98826.53;;;7.67;100.00
74659;BME280;63186;51.204;6.536;2024-03-29T07:29:39;98817.41;;;7.75;100.00
74659;BME280;63186;51.204;6.536;2024-03-29T07:32:05;98833.50;;;7.88;100.00
74659;BME280;63186;51.204;6.536;2024-03-29T07:34:30;98839.72;;;7.98;100.00
74659;BME280;63186;51.204;6.536;2024-03-29T07:36:55;98843.34;;;8.02;100.00
74659;BME280;63186;51.204;6.536;2024-03-29T07:39:21;98849.78;;;8.06;100.00
74659;BME280;63186;51.204;6.536;2024-03-29T07:41:47;98859.03;;;8.13;100.00
74659;BME280;63186;51.204;6.536;2024-03-29T07:44:13;98852.97;;;8.20;100.00
74659;BME280;63186;51.204;6.536;2024-03-29T07:46:38;98863.16;;;8.32;100.00
74659;BME280;63186;51.204;6.536;2024-03-29T07:49:05;98877.69;;;8.45;100.00
74659;BME280;63186;51.204;6.536;2024-03-29T07:51:31;98863.06;;;8.53;100.00
74659;BME280;63186;51.204;6.536;2024-03-29T07:53:56;98859.53;;;8.64;100.00
74659;BME280;63186;51.204;6.536;2024-03-29T07:56:22;98861.91;;;8.66;100.00
74659;BME280;63186;51.204;6.536;2024-03-29T07:58:54;98868.69;;;8.68;100.00
74659;BME280;63186;51.204;6.536;2024-03-29T08:01:23;98863.50;;;8.67;100.00
74659;BME280;63186;51.204;6.536;2024-03-29T08:03:52;98867.66;;;8.61;100.00
74659;BME280;63186;51.204;6.536;2024-03-29T08:06:18;98860.81;;;8.55;100.00
74659;BME280;63186;51.204;6.536;2024-03-29T08:08:44;98859.88;;;8.51;100.00
74659;BME280;63186;51.204;6.536;2024-03-29T08:11:10;98861.03;;;8.50;100.00
74659;BME280;63186;51.204;6.536;2024-03-29T08:13:37;98866.38;;;8.46;100.00
74659;BME280;63186;51.204;6.536;2024-03-29T08:16:02;98860.09;;;8.58;100.00
74659;BME280;63186;51.204;6.536;2024-03-29T08:18:29;98847.50;;;8.81;100.00
74659;BME280;63186;51.204;6.536;2024-03-29T08:20:54;98869.13;;;9.23;100.00
74659;BME280;63186;51.204;6.536;2024-03-29T08:23:21;98868.22;;;9.59;100.00
74659;BME280;63186;51.204;6.536;2024-03-29T08:25:46;98869.09;;;9.63;100.00
74659;BME280;63186;51.204;6.536;2024-03-29T08:28:11;98868.34;;;9.50;100.00
74659;BME280;63186;51.204;6.536;2024-03-29T08:30:37;98865.56;;;9.35;100.00
74659;BME280;63186;51.204;6.536;2024-03-29T08:33:03;98875.88;;;9.25;100.00
74659;BME280;63186;51.204;6.536;2024-03-29T08:35:32;98876.38;;;9.15;100.00
74659;BME280;63186;51.204;6.536;2024-03-29T08:37:58;98876.38;;;9.15;100.00
74659;BME280;63186;51.204;6.536;2024-03-29T08:40:25;98886.25;;;9.32;100.00
74659;BME280;63186;51.204;6.536;2024-03-29T08:42:50;98879.88;;;9.56;100.00
74659;BME280;63186;51.204;6.536;2024-03-29T08:45:16;98882.59;;;9.84;100.00
74659;BME280;63186;51.204;6.536;2024-03-29T08:47:41;98873.25;;;10.01;100.00
74659;BME280;63186;51.204;6.536;2024-03-29T08:50:07;98886.91;;;10.13;100.00
74659;BME280;63186;51.204;6.536;2024-03-29T08:52:32;98892.72;;;10.40;100.00
74659;BME280;63186;51.204;6.536;2024-03-29T08:54:57;98887.63;;;10.73;100.00
74659;BME280;63186;51.204;6.536;2024-03-29T08:57:23;98876.81;;;11.16;100.00
74659;BME280;63186;51.204;6.536;2024-03-29T08:59:48;98873.75;;;11.40;100.00
74659;BME280;63186;51.204;6.536;2024-03-29T09:02:13;98871.31;;;11.54;100.00
74659;BME280;63186;51.204;6.536;2024-03-29T09:04:39;98874.31;;;12.07;100.00
74659;BME280;63186;51.204;6.536;2024-03-29T09:07:04;98877.63;;;12.16;100.00
74659;BME280;63186;51.204;6.536;2024-03-29T09:09:31;98871.84;;;12.02;100.00
74659;BME280;63186;51.204;6.536;2024-03-29T09:11:56;98863.84;;;11.93;100.00
74659;BME280;63186;51.204;6.536;2024-03-29T09:14:22;98870.28;;;12.24;100.00
74659;BME280;63186;51.204;6.536;2024-03-29T09:16:47;98877.59;;;12.62;100.00
74659;BME280;63186;51.204;6.536;2024-03-29T09:19:13;98881.81;;;13.06;100.00
74659;BME280;63186;51.204;6.536;2024-03-29T09:21:39;98880.22;;;13.31;100.00
74659;BME280;63186;51.204;6.536;2024-03-29T09:24:05;98890.47;;;13.30;100.00
74659;BME280;63186;51.204;6.536;2024-03-29T09:26:31;98899.28;;;13.13;100.00
74659;BME280;63186;51.204;6.536;2024-03-29T09:28:56;98898.88;;;13.11;100.00
74659;BME280;63186;51.204;6.536;2024-03-29T09:31:21;98903.81;;;13.25;100.00
74659;BME280;63186;51.204;6.536;2024-03-29T09:33:46;98896.31;;;13.25;100.00
74659;BME280;63186;51.204;6.536;2024-03-29T09:36:15;98891.28;;;13.31;100.00
74659;BME280;63186;51.204;6.536;2024-03-29T09:38:41;98904.44;;;13.41;100.00
74659;BME280;63186;51.204;6.536;2024-03-29T09:41:16;98909.53;;;13.39;100.00
74659;BME280;63186;51.204;6.536;2024-03-29T09:43:43;98902.66;;;13.26;100.00
74659;BME280;63186;51.204;6.536;2024-03-29T09:46:12;98900.28;;;13.24;100.00
74659;BME280;63186;51.204;6.536;2024-03-29T09:48:43;98889.00;;;13.37;100.00
74659;BME280;63186;51.204;6.536;2024-03-29T09:51:11;98888.59;;;13.38;100.00
74659;BME280;63186;51.204;6.536;2024-03-29T09:53:41;98898.41;;;13.36;100.00
74659;BME280;63186;51.204;6.536;2024-03-29T09:56:07;98910.09;;;13.52;100.00
74659;BME280;63186;51.204;6.536;2024-03-29T09:58:33;98908.88;;;13.49;100.00
74659;BME280;63186;51.204;6.536;2024-03-29T10:00:59;98926.13;;;13.39;100.00
74659;BME280;63186;51.204;6.536;2024-03-29T10:03:25;98921.88;;;13.19;100.00
74659;BME280;63186;51.204;6.536;2024-03-29T10:06:01;98926.59;;;12.92;100.00
74659;BME280;63186;51.204;6.536;2024-03-29T10:08:29;98921.56;;;12.74;100.00
74659;BME280;63186;51.204;6.536;2024-03-29T10:10:56;98933.69;;;12.66;100.00
74659;BME280;63186;51.204;6.536;2024-03-29T10:13:21;98938.41;;;12.66;100.00
74659;BME280;63186;51.204;6.536;2024-03-29T10:15:49;98932.88;;;12.66;100.00
74659;BME280;63186;51.204;6.536;2024-03-29T10:18:16;98926.00;;;12.56;100.00
74659;BME280;63186;51.204;6.536;2024-03-29T10:20:43;98940.38;;;12.65;100.00
74659;BME280;63186;51.204;6.536;2024-03-29T10:23:09;98944.09;;;12.76;100.00
74659;BME280;63186;51.204;6.536;2024-03-29T10:25:34;98941.41;;;12.80;100.00
74659;BME280;63186;51.204;6.536;2024-03-29T10:28:00;98935.81;;;12.76;100.00
74659;BME280;63186;51.204;6.536;2024-03-29T10:30:28;98939.25;;;12.70;100.00
74659;BME280;63186;51.204;6.536;2024-03-29T10:32:55;98934.34;;;12.60;100.00
74659;BME280;63186;51.204;6.536;2024-03-29T10:35:21;98940.00;;;12.67;100.00
74659;BME280;63186;51.204;6.536;2024-03-29T10:37:46;98928.72;;;13.02;100.00
74659;BME280;63186;51.204;6.536;2024-03-29T10:40:12;98933.41;;;13.54;100.00
74659;BME280;63186;51.204;6.536;2024-03-29T10:42:43;98933.25;;;14.41;98.76
74659;BME280;63186;51.204;6.536;2024-03-29T10:45:10;98932.31;;;15.22;94.58
74659;BME280;63186;51.204;6.536;2024-03-29T10:47:36;98933.84;;;15.78;91.21
74659;BME280;63186;51.204;6.536;2024-03-29T10:50:02;98927.53;;;15.95;88.17
74659;BME280;63186;51.204;6.536;2024-03-29T10:52:30;98930.28;;;15.81;87.74
74659;BME280;63186;51.204;6.536;2024-03-29T10:54:56;98930.69;;;15.87;86.79
74659;BME280;63186;51.204;6.536;2024-03-29T10:57:26;98924.66;;;15.67;88.24
74659;BME280;63186;51.204;6.536;2024-03-29T11:00:11;98924.91;;;15.44;86.08
74659;BME280;63186;51.204;6.536;2024-03-29T11:05:18;98917.69;;;14.70;91.27
74659;BME280;63186;51.204;6.536;2024-03-29T11:07:44;98920.88;;;14.31;89.33
74659;BME280;63186;51.204;6.536;2024-03-29T11:10:17;98918.75;;;14.18;91.54
74659;BME280;63186;51.204;6.536;2024-03-29T11:13:10;98928.97;;;14.10;91.90
74659;BME280;63186;51.204;6.536;2024-03-29T11:15:40;98931.69;;;14.06;90.42
74659;BME280;63186;51.204;6.536;2024-03-29T11:18:07;98937.66;;;14.12;91.16
74659;BME280;63186;51.204;6.536;2024-03-29T11:20:33;98938.06;;;14.14;91.02
74659;BME280;63186;51.204;6.536;2024-03-29T11:23:06;98945.19;;;14.11;88.78
74659;BME280;63186;51.204;6.536;2024-03-29T11:25:42;98947.81;;;14.34;88.12
74659;BME280;63186;51.204;6.536;2024-03-29T11:28:08;98948.31;;;14.88;87.31
74659;BME280;63186;51.204;6.536;2024-03-29T11:30:48;98933.38;;;15.00;76.24
74659;BME280;63186;51.204;6.536;2024-03-29T11:33:30;98942.91;;;15.09;73.87
74659;BME280;63186;51.204;6.536;2024-03-29T11:36:00;98933.47;;;15.14;78.27
74659;BME280;63186;51.204;6.536;2024-03-29T11:38:31;98910.13;;;15.22;77.65
74659;BME280;63186;51.204;6.536;2024-03-29T11:43:43;98932.09;;;15.56;70.33
74659;BME280;63186;51.204;6.536;2024-03-29T11:46:10;98966.94;;;15.46;73.93
74659;BME280;63186;51.204;6.536;2024-03-29T11:48:37;98982.66;;;15.31;77.25
74659;BME280;63186;51.204;6.536;2024-03-29T11:51:04;98983.28;;;15.07;77.69
74659;BME280;63186;51.204;6.536;2024-03-29T11:53:31;98994.16;;;14.82;76.74
74659;BME280;63186;51.204;6.536;2024-03-29T11:56:00;99004.22;;;14.56;79.26
74659;BME280;63186;51.204;6.536;2024-03-29T11:58:28;99001.72;;;14.14;80.55
74659;BME280;63186;51.204;6.536;2024-03-29T12:00:55;99006.28;;;13.99;80.34
74659;BME280;63186;51.204;6.536;2024-03-29T12:03:23;99005.00;;;13.90;78.46
74659;BME280;63186;51.204;6.536;2024-03-29T12:05:50;99023.69;;;14.00;82.09
74659;BME280;63186;51.204;6.536;2024-03-29T12:08:16;99011.97;;;14.10;79.15
74659;BME280;63186;51.204;6.536;2024-03-29T12:10:42;99006.97;;;14.23;80.53
74659;BME280;63186;51.204;6.536;2024-03-29T12:13:08;99015.69;;;14.25;80.46
74659;BME280;63186;51.204;6.536;2024-03-29T12:15:34;99016.06;;;14.23;79.29
74659;BME280;63186;51.204;6.536;2024-03-29T12:18:04;99021.81;;;14.41;77.81
74659;BME280;63186;51.204;6.536;2024-03-29T12:20:33;99026.53;;;14.40;79.40
74659;BME280;63186;51.204;6.536;2024-03-29T12:23:02;99020.94;;;14.33;76.09
74659;BME280;63186;51.204;6.536;2024-03-29T12:25:31;99019.88;;;14.45;76.49
74659;BME280;63186;51.204;6.536;2024-03-29T12:27:58;99029.25;;;14.67;77.28
74659;BME280;63186;51.204;6.536;2024-03-29T12:30:24;99040.34;;;14.71;76.93
74659;BME280;63186;51.204;6.536;2024-03-29T12:33:00;99028.47;;;14.70;74.50
74659;BME280;63186;51.204;6.536;2024-03-29T12:35:27;99034.22;;;14.91;76.14
74659;BME280;63186;51.204;6.536;2024-03-29T12:37:53;99034.53;;;14.83;76.82
74659;BME280;63186;51.204;6.536;2024-03-29T12:40:19;99026.91;;;14.73;75.76
74659;BME280;63186;51.204;6.536;2024-03-29T12:42:51;99017.00;;;14.68;75.11
74659;BME280;63186;51.204;6.536;2024-03-29T12:45:18;99023.22;;;15.02;77.58
74659;BME280;63186;51.204;6.536;2024-03-29T12:47:45;99023.88;;;15.33;75.97
74659;BME280;63186;51.204;6.536;2024-03-29T12:50:13;99021.19;;;15.47;75.57
74659;BME280;63186;51.204;6.536;2024-03-29T12:52:40;99036.69;;;15.55;73.31
74659;BME280;63186;51.204;6.536;2024-03-29T12:55:07;99018.47;;;15.58;72.39
74659;BME280;63186;51.204;6.536;2024-03-29T12:57:37;99022.88;;;15.59;71.68
74659;BME280;63186;51.204;6.536;2024-03-29T13:00:04;99024.16;;;15.72;74.10
74659;BME280;63186;51.204;6.536;2024-03-29T13:02:36;99005.00;;;15.56;68.88
74659;BME280;63186;51.204;6.536;2024-03-29T13:05:03;99010.59;;;15.60;70.79